METAR Data
IDs: Format: Raw Decoded Include TAF

Data at: 1716 UTC 21 Sep 2018

KGYB 211655Z AUTO 20007KT 10SM SCT024 SCT031 SCT040 27/21 A2998 RMK AO2 T02680205
KGYB 211635Z AUTO 19009G14KT 10SM SCT024 SCT031 26/21 A2998 RMK AO2 T02620206
KGYB 211615Z AUTO 18006G15KT 10SM SCT017 SCT023 BKN031 26/20 A2998 RMK AO2 T02580204
KGYB 211555Z AUTO 18007KT 10SM SCT015 BKN021 BKN033 25/21 A2998 RMK AO2 T02500209
KGYB 211535Z AUTO 18008KT 10SM BKN015 BKN023 24/21 A2998 RMK AO2 T02430212
KGYB 211515Z AUTO 18007KT 10SM SCT013 BKN018 BKN024 23/21 A2998 RMK AO2 T02320211
KGYB 211455Z AUTO 18008KT 10SM SCT009 22/21 A2997 RMK AO2 T02240209
KGYB 211435Z AUTO 15010KT 10SM BKN007 BKN013 22/21 A2997 RMK AO2 T02200210
KGYB 211415Z AUTO 15007KT 7SM OVC007 22/21 A2996 RMK AO2 T02170210
KGYB 211355Z AUTO 15007KT 7SM BKN005 OVC009 22/21 A2996 RMK AO2 T02150207
KGYB 211335Z AUTO 15003KT 7SM OVC005 21/21 A2996 RMK AO2 T02130207
KGYB 211315Z AUTO 15005KT 5SM BR OVC005 21/21 A2996 RMK AO2 T02120206
KGYB 211255Z AUTO 14004KT 5SM BR BKN003 OVC008 21/21 A2995 RMK AO2 T02120206
KGYB 211235Z AUTO 15005KT 5SM BR OVC005 21/21 A2995 RMK AO2 T02110205
KGYB 211215Z AUTO 00000KT 5SM BR OVC005 21/21 A2995 RMK AO2 T02120205
KGYB 211155Z AUTO 00000KT 5SM BR OVC005 21/21 A2995 RMK AO2 60001 70009 T02120205 10217 20210
KGYB 211135Z AUTO 17003KT 7SM OVC005 21/21 A2995 RMK AO2 T02110205
KGYB 211115Z AUTO 00000KT 7SM BKN005 21/21 A2994 RMK AO2 T02110205
KGYB 211055Z AUTO 00000KT 7SM SCT005 SCT010 21/21 A2994 RMK AO2 T02110205
KGYB 211035Z AUTO 16004KT 7SM SCT005 SCT010 SCT016 21/21 A2994 RMK AO2 T02110205
KGYB 211015Z AUTO 00000KT 7SM CLR 21/21 A2994 RMK AO2 T02110205
KGYB 210955Z AUTO 00000KT 7SM CLR 21/21 A2994 RMK AO2 T02110205
KGYB 210935Z AUTO 00000KT 7SM CLR 21/21 A2994 RMK AO2 T02120205
KGYB 210915Z AUTO 00000KT 7SM CLR 21/21 A2994 RMK AO2 T02130206
KGYB 210855Z AUTO 00000KT 7SM CLR 22/21 A2994 RMK AO2 60001 T02150207
KGYB 210835Z AUTO 17003KT 7SM SCT005 22/21 A2994 RMK AO2 T02150208
KGYB 210815Z AUTO 17004KT 7SM BKN005 22/21 A2994 RMK AO2 T02160210
KGYB 210755Z AUTO 00000KT 7SM BKN007 BKN014 BKN120 22/21 A2994 RMK AO2 T02160210
KGYB 210735Z AUTO 16003KT 7SM SCT007 BKN014 22/21 A2995 RMK AO2 T02160210
KGYB 210715Z AUTO 16003KT 7SM CLR 22/21 A2995 RMK AO2 T02160210
KGYB 210655Z AUTO 15004KT 7SM -RA SCT010 SCT026 SCT035 22/21 A2995 RMK AO2 P0001 T02170210
KGYB 210635Z AUTO 00000KT 7SM -RA SCT035 22/21 A2995 RMK AO2 P0001 T02160210
KGYB 210615Z AUTO 00000KT 7SM CLR 22/21 A2996 RMK AO2 T02160210
KGYB 210555Z AUTO 00000KT 7SM CLR 22/21 A2996 RMK AO2 T02150207 10229 20215 403190206
KGYB 210535Z AUTO 00000KT 7SM CLR 22/21 A2996 RMK AO2 T02150207
KGYB 210515Z AUTO 00000KT 7SM CLR 22/21 A2997 RMK AO2 T02150207
KGYB 210455Z AUTO 15003KT 10SM CLR 22/21 A2997 RMK AO2 T02150207
KGYB 210435Z AUTO 13004KT 10SM CLR 22/21 A2997 RMK AO2 T02160207
KGYB 210415Z AUTO 14003KT 10SM CLR 22/21 A2997 RMK AO2 T02160207
KGYB 210355Z AUTO 00000KT 10SM CLR 22/21 A2997 RMK AO2 T02170208
KGYB 210335Z AUTO 00000KT 10SM CLR 22/21 A2997 RMK AO2 T02170208
KGYB 210315Z AUTO 00000KT 10SM CLR 22/21 A2997 RMK AO2 T02180209
KGYB 210255Z AUTO 10003KT 10SM CLR 22/21 A2996 RMK AO2 T02180208
KGYB 210235Z AUTO 00000KT 10SM CLR 22/21 A2995 RMK AO2 T02200210
KGYB 210215Z AUTO 09003KT 10SM CLR 22/21 A2995 RMK AO2 T02200210
KGYB 210155Z AUTO 10003KT 10SM -RA CLR 22/21 A2994 RMK AO2 T02200210
KGYB 210135Z AUTO 10003KT 10SM -RA SCT110 22/21 A2994 RMK AO2 T02230213
KGYB 210115Z AUTO 10003KT 10SM SCT020 SCT027 BKN120 23/22 A2994 RMK AO2 T02250215
KGYB 210055Z AUTO 11003KT 10SM -DZ SCT120 23/21 A2994 RMK AO2 T02250214
KGYB 210035Z AUTO 12004KT 10SM CLR 23/21 A2994 RMK AO2 T02250211
KGYB 210015Z AUTO 13004KT 10SM CLR 23/21 A2993 RMK AO2 T02270211
KGYB 202355Z AUTO 00000KT 10SM CLR 23/21 A2992 RMK AO2 60008 T02270210 10319 20215
KGYB 202335Z AUTO 00000KT 10SM -DZ SCT120 22/21 A2991 RMK AO2 T02220206
KGYB 202315Z AUTO 00000KT 10SM -RA SCT026 SCT035 SCT045 22/20 A2992 RMK AO2 T02160200
KGYB 202255Z AUTO 21003KT 7SM -RA BKN022 BKN031 OVC045 22/20 A2994 RMK AO2 P0008 T02160200
KGYB 202235Z AUTO 20009G21KT 4SM RA BKN022 BKN035 OVC045 22/20 A2994 RMK AO2 P0006 T02220198
KGYB 202215Z AUTO 20014G29KT 10SM -RA SCT032 SCT043 BKN070 26/20 A2994 RMK AO2 T02570203
KGYB 202155Z AUTO 16006KT 10SM SCT041 30/21 A2991 RMK AO2 T03000210
KGYB 202135Z AUTO 15007KT 10SM CLR 30/21 A2989 RMK AO2 T03020206
KGYB 202115Z AUTO 16010G14KT 130V190 10SM CLR 32/20 A2989 RMK AO2 T03190202
KGYB 202055Z AUTO 14007KT 10SM CLR 30/21 A2989 RMK AO2 T03040208
KGYB 202035Z AUTO 16007KT 120V180 10SM CLR 31/21 A2990 RMK AO2 T03100209
KGYB 202015Z AUTO 16009G14KT 110V170 10SM SCT043 SCT055 31/20 A2991 RMK AO2 T03070204
KGYB 201955Z AUTO 17006KT 10SM SCT039 SCT046 SCT055 30/21 A2993 RMK AO2 T03010205
KGYB 201935Z AUTO 18007KT 130V200 10SM SCT039 31/20 A2994 RMK AO2 T03070202
KGYB 201915Z AUTO 17007KT 10SM CLR 30/20 A2994 RMK AO2 T03030201
KGYB 201855Z AUTO 17008KT 10SM CLR 29/20 A2995 RMK AO2 T02920196
KGYB 201835Z AUTO 18008KT 10SM CLR 29/20 A2996 RMK AO2 T02910201
KGYB 201815Z AUTO 19008G16KT 10SM CLR 29/20 A2996 RMK AO2 T02900196
KGYB 201755Z AUTO 19011G16KT 10SM SCT026 SCT031 SCT037 29/21 A2997 RMK AO2 T02860206 10288 20206
KGYB 201735Z AUTO 17009KT 10SM SCT022 SCT050 SCT070 29/22 A2998 RMK AO2 T02870215
KGYB 201715Z AUTO 16006KT 10SM SCT022 SCT033 SCT050 27/21 A2999 RMK AO2 T02700211
KGYB 201655Z AUTO 15008KT 10SM SCT017 SCT023 SCT028 27/22 A2999 RMK AO2 T02700216
KGYB 201635Z AUTO 16008KT 10SM SCT017 SCT023 SCT028 26/21 A3000 RMK AO2 T02630213
KGYB 201615Z AUTO 16007KT 10SM SCT014 SCT019 26/22 A3000 RMK AO2 T02610218
KGYB 201555Z AUTO 16005KT 10SM CLR 25/22 A2999 RMK AO2 T02450218
KGYB 201535Z AUTO 16004KT 10SM CLR 24/22 A2999 RMK AO2 T02350215
KGYB 201515Z AUTO 13003KT 10SM CLR 23/22 A3000 RMK AO2 T02270215
KGYB 201455Z AUTO 15003KT 10SM SCT004 SCT008 22/21 A2999 RMK AO2 T02200210
KGYB 201435Z AUTO 00000KT 10SM CLR 22/21 A2999 RMK AO2 T02170208
KGYB 201415Z AUTO 00000KT 7SM CLR 22/21 A2998 RMK AO2 T02150207
KGYB 201355Z AUTO 00000KT 7SM SCT015 21/20 A2997 RMK AO2 T02110204
KGYB 201335Z AUTO 14003KT 7SM CLR 21/20 A2997 RMK AO2 T02080201
KGYB 201315Z AUTO 00000KT 5SM BR CLR 21/20 A2997 RMK AO2 T02070201
KGYB 201255Z AUTO 00000KT 5SM BR CLR 21/20 A2996 RMK AO2 T02060200
KGYB 201235Z AUTO 15003KT 5SM BR CLR 21/20 A2996 RMK AO2 T02070200
KGYB 201215Z AUTO 00000KT 5SM BR CLR 21/20 A2995 RMK AO2 T02080201
KGYB 201155Z AUTO 14003KT 7SM CLR 21/20 A2995 RMK AO2 T02100202 10245 20210
KGYB 201135Z AUTO 00000KT 10SM CLR 21/21 A2996 RMK AO2 T02120205
KGYB 201115Z AUTO 00000KT 7SM CLR 21/21 A2995 RMK AO2 T02120205
KGYB 201055Z AUTO 13003KT 7SM CLR 22/21 A2994 RMK AO2 T02150206
KGYB 201035Z AUTO 00000KT 10SM CLR 22/21 A2994 RMK AO2 T02170209
KGYB 201015Z AUTO 00000KT 10SM CLR 22/21 A2995 RMK AO2 T02200210
KGYB 200955Z AUTO 00000KT 10SM CLR 22/21 A2995 RMK AO2 T02220212
KGYB 200935Z AUTO 20003KT 10SM CLR 22/22 A2994 RMK AO2 T02240215
KGYB 200915Z AUTO 00000KT 10SM CLR 23/22 A2995 RMK AO2 T02250215
KGYB 200855Z AUTO 00000KT 10SM CLR 23/21 A2996 RMK AO2 T02250214
KGYB 200835Z AUTO 00000KT 10SM CLR 23/22 A2996 RMK AO2 T02290215
KGYB 200815Z AUTO 21003KT 10SM CLR 23/22 A2996 RMK AO2 T02310217
KGYB 200755Z AUTO 00000KT 10SM CLR 23/22 A2996 RMK AO2 T02310217
KGYB 200735Z AUTO 00000KT 10SM CLR 23/22 A2997 RMK AO2 T02330217
KGYB 200715Z AUTO 00000KT 10SM CLR 24/22 A2997 RMK AO2 T02350217
KGYB 200655Z AUTO 00000KT 10SM CLR 24/22 A2998 RMK AO2 T02370217
KGYB 200635Z AUTO 00000KT 10SM CLR 24/22 A2997 RMK AO2 T02400217
KGYB 200615Z AUTO 19003KT 10SM CLR 24/22 A2998 RMK AO2 T02410217
KGYB 200555Z AUTO 17003KT 10SM CLR 25/22 A2997 RMK AO2 T02450216 10307 20245 403250186
KGYB 200535Z AUTO 19003KT 10SM CLR 25/22 A2997 RMK AO2 T02460217